createdAt,value
2019-05-12T00:00:39.243Z,8.70
2019-05-12T00:03:13.144Z,10.13
2019-05-12T00:06:00.924Z,8.97
2019-05-12T00:08:33.283Z,9.27
2019-05-12T00:11:08.934Z,11.70
2019-05-12T00:13:38.522Z,11.37
2019-05-12T00:16:09.506Z,12.80
2019-05-12T00:18:41.975Z,9.20
2019-05-12T00:21:12.480Z,11.10
2019-05-12T00:24:00.888Z,10.97
2019-05-12T00:26:38.276Z,8.87
2019-05-12T00:29:11.687Z,13.77
2019-05-12T00:31:42.187Z,9.83
2019-05-12T00:34:12.663Z,11.83
2019-05-12T00:36:43.115Z,7.73
2019-05-12T00:39:33.373Z,10.87
2019-05-12T00:42:07.782Z,7.97
2019-05-12T00:44:39.121Z,9.40
2019-05-12T00:47:10.836Z,11.27
2019-05-12T00:49:41.290Z,9.33
2019-05-12T00:52:13.167Z,9.63
2019-05-12T00:54:48.279Z,13.37
2019-05-12T00:57:18.962Z,11.17
2019-05-12T00:59:50.446Z,11.27
2019-05-12T01:02:21.084Z,9.40
2019-05-12T01:04:52.121Z,7.57
2019-05-12T01:07:24.899Z,8.93
2019-05-12T01:09:55.426Z,11.27
2019-05-12T01:12:31.454Z,7.60
2019-05-12T01:15:03.148Z,9.27
2019-05-12T01:17:33.688Z,7.17
2019-05-12T01:20:05.189Z,8.60
2019-05-12T01:22:38.252Z,9.10
2019-05-12T01:25:17.475Z,9.83
2019-05-12T01:27:48.346Z,9.17
2019-05-12T01:30:18.936Z,14.27
2019-05-12T01:32:49.412Z,11.50
2019-05-12T01:35:19.825Z,10.60
2019-05-12T01:37:50.570Z,11.10
2019-05-12T01:41:04.871Z,8.57
2019-05-12T01:43:35.333Z,9.00
2019-05-12T01:46:08.042Z,10.27
2019-05-12T01:48:38.255Z,10.53
2019-05-12T01:51:09.118Z,10.47
2019-05-12T01:53:41.285Z,11.30
2019-05-12T01:56:11.771Z,9.97
2019-05-12T01:58:42.252Z,11.97
2019-05-12T02:01:12.695Z,11.00
2019-05-12T02:03:44.981Z,12.97
2019-05-12T02:06:45.375Z,11.30
2019-05-12T02:09:18.741Z,9.03
2019-05-12T02:11:49.294Z,8.83
2019-05-12T02:14:20.171Z,7.47
2019-05-12T02:16:50.612Z,11.57
2019-05-12T02:19:21.079Z,7.33
2019-05-12T02:21:51.520Z,7.60
2019-05-12T02:24:27.134Z,8.73
2019-05-12T02:26:54.236Z,7.73
2019-05-12T02:29:24.738Z,13.00
2019-05-12T02:31:55.218Z,6.67
2019-05-12T02:34:25.799Z,7.23
2019-05-12T02:36:56.214Z,11.07
2019-05-12T02:39:45.039Z,7.27
2019-05-12T02:42:15.767Z,8.97
2019-05-12T02:44:46.382Z,9.57
2019-05-12T02:47:16.770Z,6.43
2019-05-12T02:49:47.211Z,7.73
2019-05-12T02:52:19.441Z,6.80
2019-05-12T02:54:59.662Z,7.17
2019-05-12T02:57:25.578Z,7.27
2019-05-12T02:59:54.574Z,9.77
2019-05-12T03:02:25.099Z,6.37
2019-05-12T03:05:00.410Z,10.13
2019-05-12T03:07:30.792Z,7.23
2019-05-12T03:10:04.981Z,8.60
2019-05-12T03:12:40.933Z,6.30
2019-05-12T03:15:14.821Z,6.77
2019-05-12T03:17:44.287Z,8.80
2019-05-12T03:20:16.604Z,8.10
2019-05-12T03:22:47.028Z,6.00
2019-05-12T03:25:24.684Z,13.13
2019-05-12T03:27:49.940Z,8.10
2019-05-12T03:30:20.426Z,8.83
2019-05-12T03:32:57.435Z,5.73
2019-05-12T03:35:32.553Z,6.17
2019-05-12T03:37:56.565Z,4.70
2019-05-12T03:40:37.503Z,4.33
2019-05-12T03:43:10.341Z,6.63
2019-05-12T03:45:37.962Z,7.70
2019-05-12T03:48:08.469Z,3.80
2019-05-12T03:50:38.907Z,6.87
2019-05-12T03:53:11.235Z,7.83
2019-05-12T03:55:46.415Z,5.93
2019-05-12T03:58:15.189Z,5.90
2019-05-12T04:00:46.078Z,5.20
2019-05-12T04:03:16.562Z,4.90
2019-05-12T04:05:47.348Z,5.90
2019-05-12T04:08:18.160Z,5.03
2019-05-12T04:10:49.926Z,6.70
2019-05-12T04:13:20.335Z,6.77
2019-05-12T04:15:50.813Z,7.53
2019-05-12T04:18:28.942Z,7.07
2019-05-12T04:20:59.413Z,5.93
2019-05-12T04:23:34.881Z,5.23
2019-05-12T04:26:12.078Z,8.33
2019-05-12T04:28:40.444Z,6.23
2019-05-12T04:31:10.835Z,4.87
2019-05-12T04:33:45.230Z,5.20
2019-05-12T04:36:17.011Z,5.43
2019-05-12T04:38:47.522Z,6.93
2019-05-12T04:41:20.143Z,10.77
2019-05-12T04:43:50.126Z,6.07
2019-05-12T04:46:20.603Z,8.13
2019-05-12T04:48:58.445Z,5.60
2019-05-12T04:51:30.959Z,5.97
2019-05-12T04:54:01.141Z,8.30
2019-05-12T04:56:35.416Z,7.07
2019-05-12T04:59:05.179Z,7.70
2019-05-12T05:01:38.329Z,9.10
2019-05-12T05:04:09.174Z,11.47
2019-05-12T05:06:45.287Z,8.17
2019-05-12T05:09:17.047Z,7.10
2019-05-12T05:11:49.461Z,7.20
2019-05-12T05:14:20.012Z,9.23
2019-05-12T05:16:57.626Z,9.93
2019-05-12T05:19:33.740Z,11.80
2019-05-12T05:22:04.382Z,7.07
2019-05-12T05:24:35.206Z,13.83
2019-05-12T05:27:07.263Z,10.03
2019-05-12T05:29:40.042Z,9.70
2019-05-12T05:32:10.801Z,13.13
2019-05-12T05:34:46.231Z,8.63
2019-05-12T05:37:14.547Z,11.43
2019-05-12T05:39:49.691Z,11.80
2019-05-12T05:42:22.050Z,12.67
2019-05-12T05:44:49.826Z,9.07
2019-05-12T05:47:27.135Z,15.53
2019-05-12T05:49:59.588Z,11.37
2019-05-12T05:52:38.550Z,14.87
2019-05-12T05:55:14.857Z,13.80
2019-05-12T05:57:40.232Z,14.90
2019-05-12T06:00:17.376Z,15.07
2019-05-12T06:02:44.082Z,13.87
2019-05-12T06:05:19.917Z,14.33
2019-05-12T06:07:50.277Z,17.43
2019-05-12T06:10:20.778Z,14.97
2019-05-12T06:12:54.250Z,23.00
2019-05-12T06:15:24.860Z,23.37
2019-05-12T06:17:55.541Z,17.10
2019-05-12T06:20:28.784Z,18.93
2019-05-12T06:22:59.281Z,20.27
2019-05-12T06:25:45.979Z,22.27
2019-05-12T06:28:11.140Z,23.47
2019-05-12T06:30:45.050Z,23.47
2019-05-12T06:33:14.472Z,21.73
2019-05-12T06:35:45.570Z,29.03
2019-05-12T06:38:23.690Z,24.43
2019-05-12T06:40:54.477Z,22.73
2019-05-12T06:43:29.082Z,21.37
2019-05-12T06:45:57.298Z,23.20
2019-05-12T06:48:33.239Z,21.93
2019-05-12T06:51:04.120Z,19.37
2019-05-12T06:53:55.152Z,23.03
2019-05-12T06:56:26.645Z,23.27
2019-05-12T06:59:09.866Z,27.90
2019-05-12T07:01:38.061Z,35.07
2019-05-12T07:04:15.978Z,56.53
2019-05-12T07:06:49.783Z,25.87
2019-05-12T07:09:25.157Z,41.37
2019-05-12T07:12:02.931Z,38.47
2019-05-12T07:14:28.978Z,124.47
2019-05-12T07:19:43.967Z,43.63
2019-05-12T07:22:21.957Z,60.90
2019-05-12T07:24:54.718Z,42.03
2019-05-12T07:27:36.067Z,87.40
2019-05-12T07:30:04.777Z,184.80
2019-05-12T07:32:43.372Z,69.27
2019-05-12T07:35:14.749Z,247.70
2019-05-12T07:37:45.357Z,141.80
2019-05-12T07:40:18.965Z,272.37
2019-05-12T07:42:47.979Z,119.83
2019-05-12T07:45:22.468Z,413.20
2019-05-12T07:47:51.243Z,170.43
2019-05-12T07:50:26.506Z,173.47
2019-05-12T07:52:54.338Z,147.23
2019-05-12T07:55:26.928Z,53.50
2019-05-12T07:58:13.687Z,47.70
2019-05-12T08:00:38.927Z,56.10
2019-05-12T08:03:25.077Z,34.27
2019-05-12T08:06:02.247Z,33.93
2019-05-12T08:08:33.966Z,24.17
2019-05-12T08:11:04.903Z,26.33
2019-05-12T08:13:40.917Z,26.63
2019-05-12T08:16:14.408Z,23.70
2019-05-12T08:18:54.073Z,29.37
2019-05-12T08:21:27.145Z,28.00
2019-05-12T08:23:57.880Z,25.23
2019-05-12T08:26:29.813Z,23.47
2019-05-12T08:29:00.343Z,24.17
2019-05-12T08:31:40.060Z,24.50
2019-05-12T08:34:06.155Z,24.27
2019-05-12T08:36:36.736Z,22.77
2019-05-12T08:39:11.931Z,22.40
2019-05-12T08:41:44.258Z,22.87
2019-05-12T08:44:17.025Z,23.13
2019-05-12T08:46:52.059Z,25.97
2019-05-12T08:49:24.194Z,22.20
2019-05-12T08:51:58.565Z,21.73
2019-05-12T08:54:26.829Z,20.77
2019-05-12T08:57:01.264Z,21.63
2019-05-12T08:59:34.274Z,22.13
2019-05-12T09:02:10.512Z,19.27
2019-05-12T09:05:04.701Z,22.83
2019-05-12T09:07:39.864Z,22.33
2019-05-12T09:10:09.506Z,17.77
2019-05-12T09:12:40.088Z,19.93
2019-05-12T09:15:14.016Z,19.13
2019-05-12T09:17:52.649Z,22.93
2019-05-12T09:20:19.113Z,20.77
2019-05-12T09:22:52.795Z,21.47
2019-05-12T09:25:23.992Z,20.27
2019-05-12T09:27:54.445Z,19.63
2019-05-12T09:30:33.649Z,16.73
2019-05-12T09:33:04.780Z,21.83
2019-05-12T09:35:39.349Z,20.70
2019-05-12T09:38:21.313Z,16.47
2019-05-12T09:40:52.862Z,21.17
2019-05-12T09:43:23.881Z,21.53
2019-05-12T09:45:56.512Z,20.83
2019-05-12T09:48:52.327Z,17.53
2019-05-12T09:51:35.219Z,19.20
2019-05-12T09:53:58.826Z,18.73
2019-05-12T09:56:29.747Z,22.13
2019-05-12T09:59:04.727Z,15.30
2019-05-12T10:01:39.693Z,17.30
2019-05-12T10:04:15.396Z,14.70
2019-05-12T10:06:44.443Z,15.37
2019-05-12T10:09:49.316Z,12.33
2019-05-12T10:12:22.905Z,14.70
2019-05-12T10:14:53.566Z,15.57
2019-05-12T10:17:30.199Z,10.33
2019-05-12T10:20:00.450Z,11.30
2019-05-12T10:22:40.163Z,13.07
2019-05-12T10:25:14.389Z,14.53
2019-05-12T10:27:56.325Z,11.93
2019-05-12T10:30:27.044Z,8.90
2019-05-12T10:32:57.617Z,9.60
2019-05-12T10:35:43.673Z,11.33
2019-05-12T10:38:13.889Z,10.47
2019-05-12T10:40:45.461Z,10.23
2019-05-12T10:43:23.535Z,8.30
2019-05-12T10:45:53.789Z,7.07
2019-05-12T10:48:26.210Z,10.33
2019-05-12T10:51:12.120Z,7.97
2019-05-12T10:53:59.887Z,11.47
2019-05-12T10:56:27.629Z,7.80
2019-05-12T10:58:58.204Z,10.63
2019-05-12T11:01:30.770Z,7.43
2019-05-12T11:04:03.965Z,12.17
2019-05-12T11:06:39.716Z,8.33
2019-05-12T11:09:09.779Z,6.03
2019-05-12T11:11:45.317Z,6.23
2019-05-12T11:14:14.346Z,6.03
2019-05-12T11:16:47.293Z,6.30
2019-05-12T11:19:17.797Z,3.73
2019-05-12T11:21:50.608Z,8.73
2019-05-12T11:24:21.144Z,4.67
2019-05-12T11:26:53.620Z,6.10
2019-05-12T11:29:27.719Z,6.63
2019-05-12T11:31:59.760Z,11.00
2019-05-12T11:34:33.557Z,19.13
2019-05-12T11:37:10.119Z,36.67
2019-05-12T11:39:45.255Z,16.30
2019-05-12T11:42:13.636Z,12.47
2019-05-12T11:44:45.922Z,18.47
2019-05-12T11:47:24.085Z,15.97
2019-05-12T11:49:49.912Z,22.07
2019-05-12T11:52:20.652Z,70.23
2019-05-12T11:54:59.775Z,40.43
2019-05-12T11:57:30.460Z,19.10
2019-05-12T12:00:20.720Z,10.17
2019-05-12T12:02:54.115Z,4.53
2019-05-12T12:05:30.515Z,8.17
2019-05-12T12:08:04.031Z,4.43
2019-05-12T12:10:40.205Z,2.73
2019-05-12T12:13:10.785Z,5.10
2019-05-12T12:15:48.855Z,5.77
2019-05-12T12:18:23.935Z,5.10
2019-05-12T12:21:04.126Z,3.47
2019-05-12T12:23:35.939Z,6.83
2019-05-12T12:26:37.298Z,4.40
2019-05-12T12:29:10.934Z,3.53
2019-05-12T12:31:50.490Z,2.23
2019-05-12T12:34:30.066Z,3.33
2019-05-12T12:36:58.357Z,5.30
2019-05-12T12:39:32.131Z,4.47
2019-05-12T12:42:19.615Z,2.47
2019-05-12T12:44:58.843Z,3.20
2019-05-12T12:47:29.140Z,3.63
2019-05-12T12:50:04.048Z,4.10
2019-05-12T12:52:44.798Z,3.50
2019-05-12T12:55:20.241Z,3.77
2019-05-12T12:57:50.877Z,1.60
2019-05-12T13:00:31.821Z,2.70
2019-05-12T13:02:55.090Z,3.30
2019-05-12T13:05:25.730Z,3.10
2019-05-12T13:07:56.336Z,3.17
2019-05-12T13:10:27.099Z,3.90
2019-05-12T13:13:00.952Z,4.70
2019-05-12T13:15:31.222Z,5.33
2019-05-12T13:18:05.262Z,3.03
2019-05-12T13:20:35.702Z,3.40
2019-05-12T13:23:15.093Z,8.93
2019-05-12T13:25:51.963Z,1.83
2019-05-12T13:28:25.130Z,3.40
2019-05-12T13:31:08.252Z,2.67
2019-05-12T13:33:33.844Z,3.40
2019-05-12T13:36:00.974Z,4.50
2019-05-12T13:38:38.780Z,8.73
2019-05-12T13:41:04.507Z,5.70
2019-05-12T13:43:37.945Z,6.40
2019-05-12T13:46:10.740Z,4.93
2019-05-12T13:48:43.337Z,5.70
2019-05-12T13:51:15.846Z,2.87
2019-05-12T13:53:50.431Z,6.33
2019-05-12T13:56:25.747Z,3.40
2019-05-12T13:58:55.338Z,3.13
2019-05-12T14:01:26.103Z,3.33
2019-05-12T14:03:57.931Z,4.07
2019-05-12T14:06:39.609Z,4.07
2019-05-12T14:09:10.550Z,3.43
2019-05-12T14:11:43.510Z,5.23
2019-05-12T14:14:15.397Z,3.67
2019-05-12T14:16:57.463Z,3.33
2019-05-12T14:19:30.373Z,4.07
2019-05-12T14:22:15.145Z,3.47
2019-05-12T14:24:46.703Z,4.13
2019-05-12T14:27:19.101Z,7.03
2019-05-12T14:29:47.912Z,3.43
2019-05-12T14:32:19.232Z,3.70
2019-05-12T14:34:51.162Z,7.47
2019-05-12T14:37:24.302Z,4.50
2019-05-12T14:39:55.639Z,2.93
2019-05-12T14:42:34.804Z,3.40
2019-05-12T14:45:01.770Z,3.43
2019-05-12T14:47:33.944Z,3.00
2019-05-12T14:50:06.852Z,4.97
2019-05-12T14:52:37.704Z,2.43
2019-05-12T14:55:17.248Z,3.60
2019-05-12T14:57:48.086Z,6.90
2019-05-12T15:00:21.281Z,3.73
2019-05-12T15:02:54.099Z,4.10
2019-05-12T15:05:27.764Z,5.00
2019-05-12T15:08:01.645Z,3.33
2019-05-12T15:10:35.157Z,4.67
2019-05-12T15:13:05.736Z,6.47
2019-05-12T15:15:36.252Z,3.77
2019-05-12T15:18:13.767Z,3.87
2019-05-12T15:20:50.346Z,6.07
2019-05-12T15:23:23.832Z,4.53
2019-05-12T15:25:54.381Z,6.87
2019-05-12T15:28:35.789Z,3.50
2019-05-12T15:31:06.229Z,7.57
2019-05-12T15:33:38.933Z,14.97
2019-05-12T15:36:09.132Z,11.23
2019-05-12T15:38:49.252Z,10.60
2019-05-12T15:41:20.230Z,5.40
2019-05-12T15:43:55.849Z,7.83
2019-05-12T15:46:34.660Z,5.33
2019-05-12T15:49:04.602Z,4.30
2019-05-12T15:51:53.051Z,6.13
2019-05-12T15:54:14.503Z,5.13
2019-05-12T15:56:46.108Z,4.27
2019-05-12T15:59:17.444Z,3.97
2019-05-12T16:01:48.271Z,3.17
2019-05-12T16:04:27.183Z,4.10
2019-05-12T16:06:57.928Z,4.93
2019-05-12T16:09:28.460Z,3.37
2019-05-12T16:12:09.426Z,4.00
2019-05-12T16:14:36.852Z,4.87
2019-05-12T16:17:25.026Z,5.40
2019-05-12T16:19:53.994Z,4.70
2019-05-12T16:22:24.148Z,3.27
2019-05-12T16:24:56.414Z,2.50
2019-05-12T16:27:33.160Z,5.03
2019-05-12T16:30:04.720Z,4.77
2019-05-12T16:32:44.604Z,4.90
2019-05-12T16:35:14.563Z,4.70
2019-05-12T16:37:46.781Z,4.97
2019-05-12T16:40:17.268Z,4.67
2019-05-12T16:42:55.130Z,2.20
2019-05-12T16:45:23.458Z,10.73
2019-05-12T16:47:54.130Z,2.23
2019-05-12T16:50:31.352Z,3.90
2019-05-12T16:53:21.664Z,4.23
2019-05-12T16:56:11.306Z,4.37
2019-05-12T16:58:44.837Z,4.63
2019-05-12T17:01:19.579Z,4.27
2019-05-12T17:03:54.652Z,3.60
2019-05-12T17:06:28.821Z,3.10
2019-05-12T17:08:57.755Z,3.03
2019-05-12T17:11:31.031Z,7.17
2019-05-12T17:14:04.947Z,6.53
2019-05-12T17:16:41.717Z,3.00
2019-05-12T17:19:10.464Z,3.50
2019-05-12T17:21:40.632Z,2.60
2019-05-12T17:24:14.696Z,7.00
2019-05-12T17:26:46.836Z,3.40
2019-05-12T17:29:19.534Z,4.50
2019-05-12T17:31:59.261Z,5.40
2019-05-12T17:34:35.278Z,4.80
2019-05-12T17:37:06.104Z,8.83
2019-05-12T17:39:39.152Z,5.27
2019-05-12T17:42:13.094Z,3.43
2019-05-12T17:44:43.454Z,5.50
2019-05-12T17:47:25.808Z,4.53
2019-05-12T17:49:55.082Z,4.50
2019-05-12T17:52:26.182Z,2.97
2019-05-12T17:55:04.660Z,4.63
2019-05-12T17:57:33.978Z,2.57
2019-05-12T18:00:16.168Z,4.00
2019-05-12T18:03:00.111Z,3.67
2019-05-12T18:05:28.991Z,4.03
2019-05-12T18:08:01.083Z,5.37
2019-05-12T18:10:37.869Z,7.83
2019-05-12T18:13:09.080Z,4.40
2019-05-12T18:15:55.050Z,4.93
2019-05-12T18:18:32.743Z,4.27
2019-05-12T18:21:13.124Z,6.33
2019-05-12T18:23:44.313Z,4.43
2019-05-12T18:26:18.323Z,3.87
2019-05-12T18:28:49.214Z,4.37
2019-05-12T18:31:25.186Z,2.70
2019-05-12T18:33:56.995Z,3.80
2019-05-12T18:36:34.023Z,3.23
2019-05-12T18:39:12.468Z,3.23
2019-05-12T18:41:53.984Z,3.70
2019-05-12T18:44:28.858Z,6.97
2019-05-12T18:46:55.095Z,2.97
2019-05-12T18:49:29.082Z,2.13
2019-05-12T18:52:04.866Z,3.77
2019-05-12T18:54:36.872Z,3.20
2019-05-12T18:57:24.771Z,4.20
2019-05-12T19:00:01.440Z,2.03
2019-05-12T19:02:29.229Z,3.30
2019-05-12T19:05:15.250Z,2.70
2019-05-12T19:07:44.107Z,3.00
2019-05-12T19:10:16.163Z,5.57
2019-05-12T19:12:46.626Z,3.00
2019-05-12T19:15:21.832Z,6.40
2019-05-12T19:17:54.040Z,5.40
2019-05-12T19:20:31.280Z,1.93
2019-05-12T19:23:03.603Z,4.30
2019-05-12T19:25:35.820Z,2.37
2019-05-12T19:28:10.511Z,2.63
2019-05-12T19:30:43.772Z,4.47
2019-05-12T19:33:20.900Z,2.97
2019-05-12T19:35:59.927Z,5.13
2019-05-12T19:38:24.319Z,3.73
2019-05-12T19:41:00.694Z,3.83
2019-05-12T19:43:34.163Z,3.23
2019-05-12T19:46:08.339Z,5.73
2019-05-12T19:48:48.170Z,4.77
2019-05-12T19:51:21.881Z,4.87
2019-05-12T19:53:49.205Z,3.47
2019-05-12T19:56:23.987Z,2.20
2019-05-12T19:58:55.128Z,8.27
2019-05-12T20:01:32.806Z,2.57
2019-05-12T20:04:03.887Z,9.43
2019-05-12T20:06:34.307Z,6.17
2019-05-12T20:09:10.790Z,4.63
2019-05-12T20:11:41.414Z,4.97
2019-05-12T20:14:19.020Z,4.90
2019-05-12T20:16:47.099Z,3.70
2019-05-12T20:19:25.512Z,2.20
2019-05-12T20:21:59.091Z,3.93
2019-05-12T20:24:34.279Z,2.63
2019-05-12T20:27:10.531Z,2.27
2019-05-12T20:29:45.792Z,4.40
2019-05-12T20:32:17.723Z,5.73
2019-05-12T20:34:51.975Z,5.53
2019-05-12T20:37:23.580Z,4.10
2019-05-12T20:40:04.924Z,2.53
2019-05-12T20:42:42.119Z,3.43
2019-05-12T20:45:07.534Z,7.53
2019-05-12T20:47:45.170Z,7.17
2019-05-12T20:50:14.883Z,2.50
2019-05-12T20:52:52.270Z,2.57
2019-05-12T20:55:19.331Z,2.30
2019-05-12T20:57:56.814Z,2.37
2019-05-12T21:00:26.821Z,3.00
2019-05-12T21:02:57.670Z,3.73
2019-05-12T21:05:28.508Z,2.67
2019-05-12T21:08:06.186Z,3.07
2019-05-12T21:10:34.290Z,2.50
2019-05-12T21:13:09.788Z,5.63
2019-05-12T21:15:42.759Z,4.47
2019-05-12T21:18:14.661Z,2.70
2019-05-12T21:20:46.348Z,5.97
2019-05-12T21:23:17.206Z,3.47
2019-05-12T21:25:58.135Z,5.40
2019-05-12T21:28:28.645Z,4.40
2019-05-12T21:30:59.183Z,3.83
2019-05-12T21:33:31.319Z,2.67
2019-05-12T21:36:04.842Z,5.27
2019-05-12T21:38:44.135Z,4.57
2019-05-12T21:41:15.653Z,5.23
2019-05-12T21:43:48.325Z,3.67
2019-05-12T21:46:21.263Z,4.07
2019-05-12T21:49:15.650Z,3.00
2019-05-12T21:51:59.127Z,4.37
2019-05-12T21:54:39.970Z,2.80
2019-05-12T21:57:10.600Z,4.93
2019-05-12T21:59:41.145Z,4.77
2019-05-12T22:02:11.571Z,2.87
2019-05-12T22:04:45.586Z,2.57
2019-05-12T22:07:15.655Z,4.80
2019-05-12T22:09:47.894Z,6.10
2019-05-12T22:12:23.275Z,4.10
2019-05-12T22:14:54.301Z,3.97
2019-05-12T22:17:26.101Z,3.80
2019-05-12T22:20:12.160Z,2.67
2019-05-12T22:22:36.614Z,1.87
2019-05-12T22:25:19.096Z,4.37
2019-05-12T22:27:53.729Z,5.37
2019-05-12T22:30:24.181Z,8.30
2019-05-12T22:33:08.289Z,2.73
2019-05-12T22:35:34.277Z,2.27
2019-05-12T22:38:16.576Z,4.70
2019-05-12T22:40:42.838Z,4.70
2019-05-12T22:43:14.208Z,4.03
2019-05-12T22:45:54.987Z,7.10
2019-05-12T22:48:29.683Z,2.37
2019-05-12T22:51:06.290Z,6.67
2019-05-12T22:53:39.883Z,7.90
2019-05-12T22:56:12.680Z,4.13
2019-05-12T22:58:45.052Z,3.17
2019-05-12T23:01:15.848Z,2.90
2019-05-12T23:03:51.573Z,4.50
2019-05-12T23:06:23.797Z,5.07
2019-05-12T23:08:50.963Z,3.57
2019-05-12T23:11:31.769Z,5.17
2019-05-12T23:13:57.269Z,3.00
2019-05-12T23:16:29.312Z,8.50
2019-05-12T23:19:01.462Z,4.73
2019-05-12T23:21:32.214Z,4.23
2019-05-12T23:24:03.769Z,7.37
2019-05-12T23:26:41.758Z,4.47
2019-05-12T23:29:06.559Z,5.90
2019-05-12T23:31:40.475Z,5.67
2019-05-12T23:34:12.226Z,5.60
2019-05-12T23:36:50.364Z,8.67
2019-05-12T23:39:18.103Z,6.70
2019-05-12T23:41:53.837Z,4.63
2019-05-12T23:44:25.669Z,4.20
2019-05-12T23:46:56.170Z,10.70
2019-05-12T23:49:33.887Z,3.50
2019-05-12T23:52:04.533Z,4.63
2019-05-12T23:54:34.964Z,3.63
2019-05-12T23:57:05.480Z,4.43
2019-05-12T23:59:35.906Z,6.03
